Heidlersburg, Pennsylvania
Current Conditions -  °F | °C
As of 6:53 AM on Friday 21 Nov 2014 (Local Time) from KRYT Reporting Station
Clear Clear  
Wind Chill: 18°   Ceiling: Unl
Heat Index: 24°   Visibility: 10mi
Dew Point:   Wind: 5mph
Humidity: 46%   Direction: NA
Pressure: 30.26"   Gusts: 18mph
Location:  39.8288°N, 77.2253°W
Report Text: KRYT 211153Z AUTO VRB04G16KT 10SM CLR M04/M14 A3026 RMK AO2 SLP267 70009 T10441144 11022 21044 53033 $
Loading
Personal Weather Stations






























Interactive Weather Map New forecast layout! Learn more

10-Day Weather Forecast

Advertisements
Track Severe Weather on mobile